Time;durP1;ratioP1;P1;durP2;ratioP2;P2;SDS_P1;SDS_P2;PMS_P1;PMS_P2;Temp;Humidity;BMP_temperature;BMP_pressure;BME280_temperature;BME280_humidity;BME280_pressure;Samples;Min_cycle;Max_cycle;Signal;HPM_P1;HPM_P2
2022/09/05 00:00:07;;;;;;;14.43;10.57;;;;;;;;;;6353891;27;20047;-68
2022/09/05 00:03:17;;;;;;;10.70;9.23;;;;;;;;;;6354681;27;20334;-68
2022/09/05 00:06:20;;;;;;;12.95;10.77;;;;;;;;;;6354393;27;20044;-68
2022/09/05 00:09:24;;;;;;;;;;;;;;;;;;6354543;27;20172;-69
2022/09/05 00:12:27;;;;;;;12.35;11.05;;;;;;;;;;6354579;27;19923;-69
2022/09/05 00:15:35;;;;;;;12.32;11.13;;;;;;;;;;6351923;27;20051;-69
2022/09/05 00:18:48;;;;;;;11.85;10.32;;;;;;;;;;6355460;27;20055;-68
2022/09/05 00:22:02;;;;;;;11.43;10.20;;;;;;;;;;6352692;27;20051;-69
2022/09/05 00:25:20;;;;;;;13.15;11.50;;;;;;;;;;6350465;27;20043;-69
2022/09/05 00:28:29;;;;;;;11.73;10.55;;;;;;;;;;6349677;27;20059;-68
2022/09/05 00:31:43;;;;;;;11.15;10.05;;;;;;;;;;6350795;27;20055;-69
2022/09/05 00:34:56;;;;;;;13.27;10.18;;;;;;;;;;6356588;27;20045;-68
2022/09/05 00:37:58;;;;;;;;;;;;;;;;;;6363610;27;20047;-68
2022/09/05 00:41:03;;;;;;;12.43;10.93;;;;;;;;;;6354909;27;19923;-68
2022/09/05 00:44:06;;;;;;;11.82;10.57;;;;;;;;;;6351674;27;20062;-69
2022/09/05 00:47:09;;;;;;;;;;;;;;;;;;6349722;27;20062;-70
2022/09/05 00:50:17;;;;;;;14.43;10.90;;;;;;;;;;6346770;27;22761;-68
2022/09/05 00:53:25;;;;;;;13.23;10.52;;;;;;;;;;6363868;27;20105;-71
2022/09/05 00:56:39;;;;;;;11.20;9.88;;;;;;;;;;6356396;27;20054;-68
2022/09/05 01:00:06;;;;;;;11.55;10.43;;;;;;;;;;6353678;27;20058;-68
2022/09/05 01:03:17;;;;;;;13.38;11.85;;;;;;;;;;6351169;27;20277;-68
2022/09/05 01:06:28;;;;;;;11.05;9.95;;;;;;;;;;6350306;27;20063;-70
2022/09/05 01:09:43;;;;;;;11.48;10.32;;;;;;;;;;6357629;27;20058;-68
2022/09/05 01:12:55;;;;;;;11.57;9.23;;;;;;;;;;6353887;27;20051;-68
2022/09/05 01:16:02;;;;;;;13.40;10.60;;;;;;;;;;6358114;27;20062;-68
2022/09/05 01:19:12;;;;;;;10.45;9.35;;;;;;;;;;6352221;28;20152;-70
2022/09/05 01:22:29;;;;;;;10.68;8.98;;;;;;;;;;6351980;27;20043;-68
2022/09/05 01:25:40;;;;;;;10.70;9.70;;;;;;;;;;6354042;27;20043;-68
2022/09/05 01:28:47;;;;;;;11.43;10.00;;;;;;;;;;6354854;27;20052;-68
2022/09/05 01:32:02;;;;;;;11.25;9.48;;;;;;;;;;6345952;28;20048;-68
2022/09/05 01:35:43;;;;;;;10.95;9.85;;;;;;;;;;6337301;28;20040;-68
2022/09/05 01:38:51;;;;;;;10.93;9.27;;;;;;;;;;6352451;27;20047;-69
2022/09/05 01:41:59;;;;;;;10.18;9.18;;;;;;;;;;6352357;28;20273;-68
2022/09/05 01:45:05;;;;;;;9.50;8.60;;;;;;;;;;6351602;28;20100;-70
2022/09/05 01:48:11;;;;;;;10.95;8.75;;;;;;;;;;6351059;28;20055;-68
2022/09/05 01:51:21;;;;;;;10.52;9.10;;;;;;;;;;6352987;28;20082;-68
2022/09/05 01:54:29;;;;;;;12.77;9.68;;;;;;;;;;6350557;28;20055;-67
2022/09/05 01:57:38;;;;;;;10.98;9.98;;;;;;;;;;6352044;28;20116;-68
2022/09/05 02:00:47;;;;;;;10.82;8.63;;;;;;;;;;6350442;27;20349;-68
2022/09/05 02:03:55;;;;;;;12.43;9.95;;;;;;;;;;6352621;27;20039;-68
2022/09/05 02:07:03;;;;;;;11.30;9.82;;;;;;;;;;6351136;28;20044;-68
2022/09/05 02:10:25;;;;;;;11.93;9.85;;;;;;;;;;6352572;28;20051;-68
2022/09/05 02:13:41;;;;;;;11.05;9.70;;;;;;;;;;6352208;28;20047;-68
2022/09/05 02:16:44;;;;;;;12.68;9.23;;;;;;;;;;6353096;28;20113;-67
2022/09/05 02:19:50;;;;;;;10.75;9.80;;;;;;;;;;6356243;27;20249;-70
2022/09/05 02:23:03;;;;;;;10.48;9.48;;;;;;;;;;6360486;27;20050;-69
2022/09/05 02:26:08;;;;;;;11.30;9.47;;;;;;;;;;6354479;28;20052;-69
2022/09/05 02:29:12;;;;;;;11.38;10.02;;;;;;;;;;6348831;28;20284;-69
2022/09/05 02:32:22;;;;;;;10.20;9.20;;;;;;;;;;6351284;27;20116;-69
2022/09/05 02:35:28;;;;;;;10.77;9.75;;;;;;;;;;6350482;28;20332;-69
2022/09/05 02:38:36;;;;;;;10.15;9.15;;;;;;;;;;6350386;28;20043;-69
2022/09/05 02:41:41;;;;;;;10.32;9.25;;;;;;;;;;6351782;27;20060;-67
2022/09/05 02:44:55;;;;;;;10.45;9.35;;;;;;;;;;6349784;27;20048;-67
2022/09/05 02:48:03;;;;;;;9.60;8.68;;;;;;;;;;6358166;27;20268;-67
2022/09/05 02:51:11;;;;;;;11.48;9.73;;;;;;;;;;6359430;27;20088;-67
2022/09/05 02:54:18;;;;;;;10.15;8.82;;;;;;;;;;6356827;27;20293;-69
2022/09/05 02:57:31;;;;;;;10.20;9.25;;;;;;;;;;6356257;27;20047;-67
2022/09/05 03:00:35;;;;;;;;;;;;;;;;;;6355752;27;20103;-67
2022/09/05 03:03:43;;;;;;;12.93;9.30;;;;;;;;;;6356724;27;19930;-68
2022/09/05 03:06:52;;;;;;;11.45;9.88;;;;;;;;;;6336941;27;20282;-67
2022/09/05 03:10:11;;;;;;;10.00;8.70;;;;;;;;;;6355417;27;20273;-71
2022/09/05 03:13:37;;;;;;;10.32;9.32;;;;;;;;;;6339335;27;20093;-67
2022/09/05 03:17:14;;;;;;;11.30;9.38;;;;;;;;;;6351317;27;20061;-68
2022/09/05 03:20:50;;;;;;;11.05;8.98;;;;;;;;;;6342920;27;20108;-67
2022/09/05 03:24:23;;;;;;;12.30;9.75;;;;;;;;;;6356141;27;20066;-67
2022/09/05 03:28:02;;;;;;;11.37;10.13;;;;;;;;;;6353916;27;20036;-70
2022/09/05 03:31:39;;;;;;;14.00;9.98;;;;;;;;;;6345467;27;20055;-70
2022/09/05 03:34:59;;;;;;;11.65;10.48;;;;;;;;;;6337028;27;20059;-68
2022/09/05 03:38:23;;;;;;;11.88;10.52;;;;;;;;;;6355077;27;20123;-67
2022/09/05 03:41:35;;;;;;;10.60;9.50;;;;;;;;;;6356591;27;20066;-68
2022/09/05 03:44:48;;;;;;;11.50;10.38;;;;;;;;;;6356852;27;20059;-68
2022/09/05 03:48:22;;;;;;;10.50;9.23;;;;;;;;;;6356523;27;20109;-69
2022/09/05 03:51:43;;;;;;;14.68;11.05;;;;;;;;;;6355342;27;20271;-69
2022/09/05 03:55:29;;;;;;;12.75;10.38;;;;;;;;;;6357989;27;20233;-70
2022/09/05 03:58:50;;;;;;;11.85;10.60;;;;;;;;;;6295562;28;20058;-69
2022/09/05 04:01:54;;;;;;;13.20;10.63;;;;;;;;;;6303546;28;20061;-69
2022/09/05 04:05:02;;;;;;;15.48;11.55;;;;;;;;;;6304359;28;20052;-69
2022/09/05 04:08:10;;;;;;;12.40;11.10;;;;;;;;;;6298142;28;20151;-69
2022/09/05 04:11:17;;;;;;;12.77;11.05;;;;;;;;;;6300872;28;20091;-69
2022/09/05 04:14:22;;;;;;;11.80;10.65;;;;;;;;;;6303484;28;20048;-68
2022/09/05 04:17:31;;;;;;;13.20;11.15;;;;;;;;;;6306400;28;20052;-68
2022/09/05 04:20:41;;;;;;;15.68;12.30;;;;;;;;;;6300414;28;20059;-69
2022/09/05 04:23:52;;;;;;;15.57;11.20;;;;;;;;;;6302878;28;20274;-70
2022/09/05 04:27:01;;;;;;;13.15;11.35;;;;;;;;;;6301487;28;20264;-68
2022/09/05 04:30:15;;;;;;;19.92;11.38;;;;;;;;;;6299220;28;20059;-68
2022/09/05 04:33:20;;;;;;;14.35;11.52;;;;;;;;;;6346650;27;20322;-69
2022/09/05 04:36:25;;;;;;;15.50;11.63;;;;;;;;;;6354356;27;20225;-69
2022/09/05 04:39:28;;;;;;;15.35;11.85;;;;;;;;;;6355216;27;20059;-68
2022/09/05 04:42:31;;;;;;;15.00;11.18;;;;;;;;;;6345362;27;20051;-69
2022/09/05 04:45:34;;;;;;;;;;;;;;;;;;6346442;27;20093;-70
2022/09/05 04:48:38;;;;;;;15.13;11.63;;;;;;;;;;6351428;27;20191;-73
2022/09/05 04:52:15;;;;;;;15.02;11.45;;;;;;;;;;6356238;27;20058;-69
2022/09/05 04:55:21;;;;;;;12.95;11.32;;;;;;;;;;6356608;27;20036;-68
2022/09/05 04:58:27;;;;;;;12.82;10.23;;;;;;;;;;6352400;27;20063;-69
2022/09/05 05:01:33;;;;;;;13.05;10.73;;;;;;;;;;6352697;27;20390;-69
2022/09/05 05:04:34;;;;;;;12.25;10.23;;;;;;;;;;6352144;27;21165;-69
2022/09/05 05:07:46;;;;;;;17.45;10.45;;;;;;;;;;6347979;27;20227;-71
2022/09/05 05:10:50;;;;;;;18.35;10.40;;;;;;;;;;6354580;27;20120;-69
2022/09/05 05:13:56;;;;;;;10.55;9.45;;;;;;;;;;6349261;27;20219;-67
2022/09/05 05:17:01;;;;;;;11.05;9.25;;;;;;;;;;6347807;27;20055;-68
2022/09/05 05:20:10;;;;;;;12.20;9.55;;;;;;;;;;6351911;27;20070;-69
2022/09/05 05:23:14;;;;;;;15.52;9.10;;;;;;;;;;6353348;28;20047;-69
2022/09/05 05:26:21;;;;;;;10.10;9.00;;;;;;;;;;6353282;27;21686;-70
2022/09/05 05:29:29;;;;;;;14.15;9.05;;;;;;;;;;6351127;27;20761;-70
2022/09/05 05:32:34;;;;;;;16.90;8.50;;;;;;;;;;6351122;27;20934;-70
2022/09/05 05:35:37;;;;;;;12.90;8.57;;;;;;;;;;6352329;27;20055;-70
2022/09/05 05:38:43;;;;;;;14.23;8.73;;;;;;;;;;6352818;27;20334;-70
2022/09/05 05:42:12;;;;;;;10.88;8.18;;;;;;;;;;6354026;28;20051;-70
2022/09/05 05:45:19;;;;;;;11.30;8.43;;;;;;;;;;6341805;28;20040;-69
2022/09/05 05:48:29;;;;;;;11.82;8.90;;;;;;;;;;6340741;28;20086;-70
2022/09/05 05:51:41;;;;;;;12.18;8.27;;;;;;;;;;6355276;28;20081;-70
2022/09/05 05:54:47;;;;;;;11.27;7.65;;;;;;;;;;6349964;28;20412;-71
2022/09/05 05:58:11;;;;;;;9.52;7.93;;;;;;;;;;6347890;28;20782;-69
2022/09/05 06:01:40;;;;;;;9.52;8.45;;;;;;;;;;6344281;28;20052;-70
2022/09/05 06:05:10;;;;;;;9.82;8.07;;;;;;;;;;6307215;28;20052;-70
2022/09/05 06:08:32;;;;;;;10.15;7.88;;;;;;;;;;6352140;28;20059;-70
2022/09/05 06:11:52;;;;;;;10.38;8.10;;;;;;;;;;6350062;28;20118;-70
2022/09/05 06:15:24;;;;;;;10.02;8.00;;;;;;;;;;6334653;28;20059;-69
2022/09/05 06:19:04;;;;;;;8.00;7.20;;;;;;;;;;6319580;28;20066;-68
2022/09/05 06:22:32;;;;;;;9.43;8.00;;;;;;;;;;6341280;27;20230;-72
2022/09/05 06:25:56;;;;;;;10.73;8.05;;;;;;;;;;6353776;27;20089;-71
2022/09/05 06:29:01;;;;;;;;;;;;;;;;;;6315811;27;20055;-70
2022/09/05 06:32:09;;;;;;;10.38;7.60;;;;;;;;;;6355572;27;19927;-70
2022/09/05 06:35:26;;;;;;;10.00;7.30;;;;;;;;;;6350227;27;20040;-70
2022/09/05 06:38:41;;;;;;;9.35;8.15;;;;;;;;;;6357437;27;20109;-71
2022/09/05 06:41:55;;;;;;;12.90;8.05;;;;;;;;;;6354727;27;20047;-70
2022/09/05 06:45:18;;;;;;;10.52;8.55;;;;;;;;;;6354743;27;20047;-69
2022/09/05 06:48:22;;;;;;;9.43;7.80;;;;;;;;;;6356119;27;20326;-69
2022/09/05 06:52:00;;;;;;;9.48;8.48;;;;;;;;;;6355845;27;20052;-70
2022/09/05 06:55:41;;;;;;;10.88;8.02;;;;;;;;;;6326016;27;20044;-70
2022/09/05 06:59:19;;;;;;;9.35;8.38;;;;;;;;;;6348359;27;20045;-70
2022/09/05 07:02:23;;;;;;;8.00;7.05;;;;;;;;;;6325977;28;20056;-71
2022/09/05 07:05:33;;;;;;;9.15;6.70;;;;;;;;;;6323664;28;20343;-70
2022/09/05 07:08:44;;;;;;;10.10;7.43;;;;;;;;;;6324400;28;20052;-70
2022/09/05 07:11:51;;;;;;;9.40;7.22;;;;;;;;;;6322304;28;20055;-70
2022/09/05 07:14:58;;;;;;;9.68;7.60;;;;;;;;;;6321589;28;20094;-70
2022/09/05 07:18:06;;;;;;;8.20;7.22;;;;;;;;;;6324497;28;20105;-70
2022/09/05 07:21:16;;;;;;;11.40;7.65;;;;;;;;;;6321642;28;20044;-70
2022/09/05 07:24:21;;;;;;;10.95;7.15;;;;;;;;;;6313716;28;20107;-70
2022/09/05 07:27:34;;;;;;;10.50;7.65;;;;;;;;;;6324052;28;20342;-70
2022/09/05 07:30:38;;;;;;;10.48;7.22;;;;;;;;;;6323650;28;20048;-69
2022/09/05 07:33:40;;;;;;;11.32;7.00;;;;;;;;;;6323547;28;20047;-70
2022/09/05 07:36:45;;;;;;;17.58;7.78;;;;;;;;;;6323138;28;20067;-70
2022/09/05 07:39:50;;;;;;;9.23;7.07;;;;;;;;;;6319949;28;20154;-70
2022/09/05 07:42:56;;;;;;;10.15;6.53;;;;;;;;;;6311054;28;20055;-70
2022/09/05 07:46:10;;;;;;;9.27;6.72;;;;;;;;;;6324345;28;20075;-70
2022/09/05 07:49:13;;;;;;;9.02;6.45;;;;;;;;;;6316188;28;20036;-70
2022/09/05 07:52:18;;;;;;;9.50;5.22;;;;;;;;;;6322130;28;20144;-70
2022/09/05 07:55:25;;;;;;;8.55;5.45;;;;;;;;;;6322851;28;20048;-70
2022/09/05 07:58:40;;;;;;;7.07;5.70;;;;;;;;;;6324663;28;20060;-70
2022/09/05 08:01:44;;;;;;;7.47;6.20;;;;;;;;;;6354448;27;20277;-70
2022/09/05 08:04:46;;;;;;;7.82;5.25;;;;;;;;;;6353560;27;20047;-70
2022/09/05 08:07:51;;;;;;;7.07;4.95;;;;;;;;;;6354316;27;20261;-70
2022/09/05 08:10:54;;;;;;;5.93;4.43;;;;;;;;;;6354813;27;20071;-70
2022/09/05 08:14:03;;;;;;;10.05;5.95;;;;;;;;;;6354860;27;20331;-70
2022/09/05 08:17:06;;;;;;;8.32;5.70;;;;;;;;;;6358030;27;20114;-70
2022/09/05 08:20:23;;;;;;;6.65;4.97;;;;;;;;;;6359141;27;20081;-70
2022/09/05 08:23:39;;;;;;;6.70;5.13;;;;;;;;;;6364506;27;20051;-69
2022/09/05 08:26:44;;;;;;;7.22;4.72;;;;;;;;;;6354574;27;20052;-70
2022/09/05 08:29:52;;;;;;;6.97;5.07;;;;;;;;;;6354824;27;20051;-70
2022/09/05 08:32:58;;;;;;;9.05;4.57;;;;;;;;;;6355497;27;20335;-70
2022/09/05 08:36:03;;;;;;;6.25;4.72;;;;;;;;;;6352969;27;20059;-71
2022/09/05 08:39:06;;;;;;;8.07;5.25;;;;;;;;;;6353990;27;20121;-71
2022/09/05 08:42:18;;;;;;;10.27;6.00;;;;;;;;;;6353829;28;20051;-69
2022/09/05 08:45:24;;;;;;;9.18;4.97;;;;;;;;;;6355199;27;20964;-70
2022/09/05 08:48:40;;;;;;;10.80;5.13;;;;;;;;;;6351308;27;20135;-70
2022/09/05 08:51:46;;;;;;;7.80;5.43;;;;;;;;;;6355749;27;20933;-70
2022/09/05 08:54:56;;;;;;;5.20;4.07;;;;;;;;;;6352784;27;20058;-70
2022/09/05 08:58:06;;;;;;;5.43;4.93;;;;;;;;;;6355345;27;20051;-70
2022/09/05 09:01:15;;;;;;;7.30;4.95;;;;;;;;;;6353091;27;20035;-69
2022/09/05 09:04:20;;;;;;;8.63;5.03;;;;;;;;;;6354087;27;20092;-70
2022/09/05 09:07:24;;;;;;;6.65;4.30;;;;;;;;;;6354370;27;20052;-69
2022/09/05 09:10:30;;;;;;;6.70;4.10;;;;;;;;;;6351314;27;20048;-70
2022/09/05 09:13:49;;;;;;;6.57;4.60;;;;;;;;;;6354519;27;20051;-70
2022/09/05 09:16:59;;;;;;;5.85;3.30;;;;;;;;;;6353947;27;20043;-70
2022/09/05 09:20:22;;;;;;;6.03;3.88;;;;;;;;;;6353134;27;20361;-69
2022/09/05 09:23:43;;;;;;;7.35;3.70;;;;;;;;;;6354932;27;20043;-69
2022/09/05 09:26:51;;;;;;;4.90;3.92;;;;;;;;;;6351632;27;20047;-70
2022/09/05 09:29:57;;;;;;;10.32;5.70;;;;;;;;;;6354063;27;20112;-70
2022/09/05 09:33:05;;;;;;;8.13;4.10;;;;;;;;;;6351501;28;20035;-69
2022/09/05 09:36:14;;;;;;;7.53;4.35;;;;;;;;;;6354799;27;20055;-70
2022/09/05 09:39:26;;;;;;;3.78;3.47;;;;;;;;;;6349896;28;20051;-70
2022/09/05 09:42:32;;;;;;;6.25;4.03;;;;;;;;;;6350021;28;20319;-70
2022/09/05 09:46:01;;;;;;;9.20;3.65;;;;;;;;;;6352685;28;20056;-71
2022/09/05 09:49:26;;;;;;;7.18;3.60;;;;;;;;;;6350875;28;20048;-70
2022/09/05 09:52:42;;;;;;;7.45;4.30;;;;;;;;;;6350741;27;20051;-70
2022/09/05 09:56:05;;;;;;;3.95;3.15;;;;;;;;;;6355464;27;20055;-70
2022/09/05 09:59:32;;;;;;;6.53;4.18;;;;;;;;;;6300630;27;20051;-70
2022/09/05 10:03:12;;;;;;;11.93;5.03;;;;;;;;;;6356641;27;20149;-70
2022/09/05 10:06:43;;;;;;;4.10;3.70;;;;;;;;;;6311297;27;20055;-70
2022/09/05 10:10:00;;;;;;;6.72;4.30;;;;;;;;;;6357893;27;20043;-71
2022/09/05 10:13:27;;;;;;;10.48;5.93;;;;;;;;;;6352944;27;20052;-70
2022/09/05 10:16:47;;;;;;;7.03;5.00;;;;;;;;;;6359252;27;20051;-70
2022/09/05 10:20:17;;;;;;;8.10;4.35;;;;;;;;;;6362280;27;20055;-70
2022/09/05 10:23:52;;;;;;;4.38;3.63;;;;;;;;;;6356668;27;20376;-70
2022/09/05 10:27:13;;;;;;;9.77;5.00;;;;;;;;;;6357328;27;20051;-70
2022/09/05 10:30:19;;;;;;;7.18;5.05;;;;;;;;;;6356318;27;20052;-69
2022/09/05 10:33:28;;;;;;;4.72;4.15;;;;;;;;;;6356592;27;20119;-71
2022/09/05 10:36:31;;;;;;;4.47;4.07;;;;;;;;;;6358263;27;20051;-71
2022/09/05 10:39:36;;;;;;;8.07;3.60;;;;;;;;;;6346356;27;20224;-71
2022/09/05 10:42:42;;;;;;;4.65;3.53;;;;;;;;;;6355143;27;20061;-71
2022/09/05 10:45:47;;;;;;;6.40;4.05;;;;;;;;;;6358605;27;20124;-71
2022/09/05 10:48:53;;;;;;;5.35;3.28;;;;;;;;;;6354743;27;20723;-71
2022/09/05 10:52:00;;;;;;;4.90;2.90;;;;;;;;;;6358792;27;20057;-71
2022/09/05 10:55:17;;;;;;;4.65;2.90;;;;;;;;;;6359996;27;20039;-71
2022/09/05 10:58:34;;;;;;;6.50;3.60;;;;;;;;;;6357356;27;20102;-71
2022/09/05 11:01:40;;;;;;;4.47;2.72;;;;;;;;;;6359268;27;20061;-71
2022/09/05 11:04:48;;;;;;;6.15;3.17;;;;;;;;;;6354732;27;20176;-72
2022/09/05 11:08:00;;;;;;;5.07;3.63;;;;;;;;;;6355938;27;20220;-71
2022/09/05 11:11:15;;;;;;;5.13;3.10;;;;;;;;;;6355404;27;20079;-71
2022/09/05 11:14:34;;;;;;;4.07;2.75;;;;;;;;;;6354380;27;20056;-71
2022/09/05 11:17:40;;;;;;;4.18;2.53;;;;;;;;;;6356061;27;20473;-71
2022/09/05 11:20:51;;;;;;;5.93;3.55;;;;;;;;;;6356610;27;20104;-71
2022/09/05 11:23:56;;;;;;;3.75;2.90;;;;;;;;;;6355426;27;20346;-72
2022/09/05 11:27:02;;;;;;;3.58;2.67;;;;;;;;;;6355805;27;20051;-72
2022/09/05 11:30:06;;;;;;;3.42;2.72;;;;;;;;;;6347766;27;20049;-72
2022/09/05 11:33:15;;;;;;;6.53;2.80;;;;;;;;;;6350569;27;20322;-72
2022/09/05 11:36:18;;;;;;;4.93;2.88;;;;;;;;;;6352169;27;20242;-72
2022/09/05 11:39:59;;;;;;;3.22;2.92;;;;;;;;;;6356125;27;20224;-72
2022/09/05 11:43:30;;;;;;;4.50;2.57;;;;;;;;;;6353446;27;20775;-70
2022/09/05 11:46:35;;;;;;;5.20;2.80;;;;;;;;;;6309212;27;20047;-70
2022/09/05 11:49:52;;;;;;;9.93;3.00;;;;;;;;;;6352788;27;20043;-70
2022/09/05 11:53:42;;;;;;;6.15;2.88;;;;;;;;;;6356198;27;20243;-71
2022/09/05 11:57:12;;;;;;;8.23;2.70;;;;;;;;;;6347134;27;20063;-71
2022/09/05 12:00:19;;;;;;;9.25;5.85;;;;;;;;;;6352609;27;20047;-70
2022/09/05 12:03:40;;;;;;;8.88;7.13;;;;;;;;;;6352717;27;20071;-70
2022/09/05 12:07:09;;;;;;;8.32;3.83;;;;;;;;;;6353431;27;20062;-72
2022/09/05 12:10:28;;;;;;;4.88;3.72;;;;;;;;;;6351207;27;20055;-70
2022/09/05 12:13:37;;;;;;;4.70;2.70;;;;;;;;;;6353172;27;20047;-71
2022/09/05 12:16:46;;;;;;;3.40;2.75;;;;;;;;;;6352041;27;20327;-71
2022/09/05 12:19:54;;;;;;;4.50;2.40;;;;;;;;;;6354954;27;20060;-71
2022/09/05 12:22:59;;;;;;;4.18;1.95;;;;;;;;;;6354421;27;20059;-72
2022/09/05 12:26:04;;;;;;;4.90;2.33;;;;;;;;;;6353124;27;20315;-71
2022/09/05 12:29:08;;;;;;;3.65;2.30;;;;;;;;;;6353612;27;20106;-71
2022/09/05 12:32:19;;;;;;;3.22;2.28;;;;;;;;;;6360483;27;20055;-71
2022/09/05 12:35:30;;;;;;;2.90;2.30;;;;;;;;;;6364073;27;20051;-71
2022/09/05 12:38:36;;;;;;;;;;;;;;;;;;6362014;27;20102;-71
2022/09/05 12:41:41;;;;;;;4.03;2.88;;;;;;;;;;6360110;27;19928;-71
2022/09/05 12:44:49;;;;;;;3.63;2.72;;;;;;;;;;6351592;27;20118;-71
2022/09/05 12:47:57;;;;;;;3.28;2.90;;;;;;;;;;6353557;27;20352;-71
2022/09/05 12:51:03;;;;;;;6.10;3.00;;;;;;;;;;6353063;27;20070;-71
2022/09/05 12:54:10;;;;;;;4.07;3.33;;;;;;;;;;6352369;27;20047;-72
2022/09/05 12:57:20;;;;;;;7.85;2.70;;;;;;;;;;6351313;27;20122;-72
2022/09/05 13:00:22;;;;;;;6.63;3.45;;;;;;;;;;6336217;28;20158;-71
2022/09/05 13:03:29;;;;;;;5.45;3.75;;;;;;;;;;6327860;28;20118;-71
2022/09/05 13:06:35;;;;;;;7.50;6.75;;;;;;;;;;6327619;28;20062;-71
2022/09/05 13:09:40;;;;;;;5.00;3.80;;;;;;;;;;6326093;28;20056;-71
2022/09/05 13:12:46;;;;;;;4.40;3.40;;;;;;;;;;6333663;28;20326;-72
2022/09/05 13:15:51;;;;;;;4.75;3.60;;;;;;;;;;6322214;28;20213;-71
2022/09/05 13:19:01;;;;;;;5.22;2.78;;;;;;;;;;6335772;28;20071;-72
2022/09/05 13:22:03;;;;;;;4.50;2.70;;;;;;;;;;6332236;28;20051;-71
2022/09/05 13:25:08;;;;;;;3.35;2.35;;;;;;;;;;6326876;28;20062;-72
2022/09/05 13:28:12;;;;;;;4.90;2.55;;;;;;;;;;6333128;28;20043;-72
2022/09/05 13:31:16;;;;;;;4.68;2.88;;;;;;;;;;6335778;28;20133;-72
2022/09/05 13:34:23;;;;;;;3.00;2.47;;;;;;;;;;6336819;28;20066;-72
2022/09/05 13:37:28;;;;;;;5.50;2.70;;;;;;;;;;6339962;28;20071;-72
2022/09/05 13:40:33;;;;;;;3.50;2.80;;;;;;;;;;6336761;28;20094;-71
2022/09/05 13:43:37;;;;;;;3.67;2.80;;;;;;;;;;6323834;28;20106;-72
2022/09/05 13:46:46;;;;;;;6.82;2.83;;;;;;;;;;6332194;28;20056;-72
2022/09/05 13:49:52;;;;;;;3.17;2.80;;;;;;;;;;6331804;28;20073;-72
2022/09/05 13:52:58;;;;;;;6.05;3.28;;;;;;;;;;6330591;28;20048;-73
2022/09/05 13:56:13;;;;;;;7.80;6.82;;;;;;;;;;6328404;28;20234;-73
2022/09/05 13:59:15;;;;;;;16.40;13.50;;;;;;;;;;6340274;28;20054;-72
2022/09/05 14:02:29;;;;;;;9.32;7.85;;;;;;;;;;6358906;28;20214;-71
2022/09/05 14:05:35;;;;;;;3.65;2.90;;;;;;;;;;6356708;27;20106;-71
2022/09/05 14:08:52;;;;;;;5.55;2.75;;;;;;;;;;6356730;28;20089;-71
2022/09/05 14:11:59;;;;;;;4.50;2.92;;;;;;;;;;6355486;28;20870;-71
2022/09/05 14:15:10;;;;;;;4.63;2.42;;;;;;;;;;6355263;28;20204;-72
2022/09/05 14:18:20;;;;;;;3.30;2.70;;;;;;;;;;6356948;27;20089;-71
2022/09/05 14:21:25;;;;;;;3.35;2.30;;;;;;;;;;6357210;27;20048;-72
2022/09/05 14:24:27;;;;;;;5.32;2.50;;;;;;;;;;6358696;27;20092;-71
2022/09/05 14:27:29;;;;;;;;;;;;;;;;;;6359249;27;20051;-71
2022/09/05 14:30:36;;;;;;;4.53;2.38;;;;;;;;;;6360081;28;20347;-72
2022/09/05 14:33:46;;;;;;;3.72;2.75;;;;;;;;;;6357836;28;20052;-71
2022/09/05 14:36:56;;;;;;;4.00;2.40;;;;;;;;;;6358301;28;20051;-72
2022/09/05 14:40:14;;;;;;;6.22;3.10;;;;;;;;;;6358506;27;20074;-72
2022/09/05 14:44:16;;;;;;;3.40;2.90;;;;;;;;;;6361518;27;20065;-72
2022/09/05 14:47:55;;;;;;;4.30;2.30;;;;;;;;;;6153782;28;20051;-72
2022/09/05 14:51:06;;;;;;;5.63;2.75;;;;;;;;;;6157025;28;20087;-71
2022/09/05 14:54:13;;;;;;;5.57;2.83;;;;;;;;;;6156997;28;20058;-69
2022/09/05 14:57:17;;;;;;;10.30;3.53;;;;;;;;;;6151790;28;20110;-71
2022/09/05 15:00:21;;;;;;;3.65;2.80;;;;;;;;;;6193433;28;20245;-70
2022/09/05 15:03:25;;;;;;;8.90;2.75;;;;;;;;;;6206028;28;20046;-71
2022/09/05 15:06:28;;;;;;;5.32;2.90;;;;;;;;;;6204854;28;20061;-71
2022/09/05 15:09:32;;;;;;;5.80;2.42;;;;;;;;;;6205130;28;20049;-71
2022/09/05 15:12:35;;;;;;;6.32;2.35;;;;;;;;;;6204704;28;20046;-70
2022/09/05 15:15:38;;;;;;;5.50;2.60;;;;;;;;;;6204391;28;20042;-70
2022/09/05 15:18:43;;;;;;;3.88;2.50;;;;;;;;;;6262662;28;20327;-70
2022/09/05 15:21:45;;;;;;;2.70;2.28;;;;;;;;;;6275675;28;20060;-71
2022/09/05 15:24:57;;;;;;;;;;;;;;;;;;6353735;27;20266;-69
2022/09/05 15:27:59;;;;;;;;;;;;;;;;;;6354157;27;19916;-71
2022/09/05 15:31:05;;;;;;;10.00;8.55;;;;;;;;;;6348147;27;19934;-72
2022/09/05 15:34:25;;;;;;;22.92;19.27;;;;;;;;;;6347384;27;20115;-71
2022/09/05 15:37:35;;;;;;;3.53;3.03;;;;;;;;;;6346599;28;20192;-70
2022/09/05 15:40:38;;;;;;;4.85;2.50;;;;;;;;;;6345476;28;20106;-71
2022/09/05 15:43:57;;;;;;;5.00;2.33;;;;;;;;;;6347906;27;20054;-71
2022/09/05 15:47:00;;;;;;;4.05;2.58;;;;;;;;;;6347270;28;20269;-70
2022/09/05 15:50:04;;;;;;;5.53;2.95;;;;;;;;;;6346987;27;20063;-70
2022/09/05 15:53:06;;;;;;;6.13;2.95;;;;;;;;;;6345816;27;20114;-70
2022/09/05 15:56:19;;;;;;;5.55;3.10;;;;;;;;;;6347261;27;20059;-69
2022/09/05 15:59:25;;;;;;;14.05;3.92;;;;;;;;;;6338581;27;20056;-69
2022/09/05 16:02:30;;;;;;;4.35;3.05;;;;;;;;;;6329861;28;20048;-70
2022/09/05 16:05:32;;;;;;;7.32;3.17;;;;;;;;;;6320200;28;20052;-70
2022/09/05 16:08:35;;;;;;;4.28;2.80;;;;;;;;;;6328499;28;20055;-69
2022/09/05 16:11:40;;;;;;;5.57;3.28;;;;;;;;;;6323847;28;20231;-69
2022/09/05 16:14:44;;;;;;;11.48;3.05;;;;;;;;;;6328121;28;20052;-70
2022/09/05 16:17:49;;;;;;;6.63;3.00;;;;;;;;;;6329771;28;20055;-70
2022/09/05 16:20:54;;;;;;;3.95;2.80;;;;;;;;;;6330267;28;20139;-70
2022/09/05 16:23:59;;;;;;;7.28;4.00;;;;;;;;;;6329368;28;20059;-70
2022/09/05 16:27:05;;;;;;;5.68;2.80;;;;;;;;;;6334341;28;20051;-70
2022/09/05 16:30:08;;;;;;;4.72;2.58;;;;;;;;;;6331210;28;20390;-70
2022/09/05 16:33:16;;;;;;;5.07;3.17;;;;;;;;;;6326819;28;20061;-70
2022/09/05 16:36:25;;;;;;;7.82;3.08;;;;;;;;;;6326784;28;20231;-70
2022/09/05 16:39:31;;;;;;;4.68;2.80;;;;;;;;;;6329542;28;20120;-69
2022/09/05 16:42:42;;;;;;;15.23;3.53;;;;;;;;;;6317661;28;20342;-70
2022/09/05 16:46:03;;;;;;;8.70;3.03;;;;;;;;;;6319190;28;20121;-69
2022/09/05 16:49:08;;;;;;;6.60;3.25;;;;;;;;;;6321000;28;20113;-70
2022/09/05 16:52:11;;;;;;;5.15;3.08;;;;;;;;;;6328653;28;20062;-70
2022/09/05 16:55:15;;;;;;;8.63;2.80;;;;;;;;;;6326315;28;20048;-70
2022/09/05 16:58:21;;;;;;;3.72;2.90;;;;;;;;;;6325193;28;20052;-69
2022/09/05 17:01:47;;;;;;;4.70;2.95;;;;;;;;;;6354851;27;20055;-71
2022/09/05 17:05:08;;;;;;;3.83;2.97;;;;;;;;;;6347373;27;20106;-69
2022/09/05 17:08:14;;;;;;;10.05;2.78;;;;;;;;;;6350781;27;20122;-70
2022/09/05 17:11:17;;;;;;;4.05;2.40;;;;;;;;;;6351526;27;20079;-71
2022/09/05 17:14:22;;;;;;;4.10;2.60;;;;;;;;;;6349357;27;20059;-70
2022/09/05 17:17:28;;;;;;;8.23;2.60;;;;;;;;;;6351880;27;20059;-69
2022/09/05 17:20:32;;;;;;;4.22;2.60;;;;;;;;;;6351653;27;20242;-69
2022/09/05 17:23:37;;;;;;;3.65;2.40;;;;;;;;;;6353281;27;20084;-69
2022/09/05 17:26:42;;;;;;;3.40;2.55;;;;;;;;;;6348364;27;20123;-69
2022/09/05 17:30:04;;;;;;;4.57;2.55;;;;;;;;;;6351088;27;20088;-71
2022/09/05 17:33:16;;;;;;;2.95;2.50;;;;;;;;;;6349901;27;20342;-71
2022/09/05 17:36:22;;;;;;;4.38;2.85;;;;;;;;;;6347234;28;20052;-69
2022/09/05 17:39:31;;;;;;;4.43;2.53;;;;;;;;;;6351371;27;20724;-69
2022/09/05 17:42:41;;;;;;;5.30;2.83;;;;;;;;;;6334920;28;20383;-68
2022/09/05 17:45:48;;;;;;;6.47;2.80;;;;;;;;;;6355128;27;20071;-68
2022/09/05 17:48:59;;;;;;;7.25;2.63;;;;;;;;;;6347682;28;21693;-69
2022/09/05 17:52:28;;;;;;;15.60;3.90;;;;;;;;;;6350369;28;20044;-69
2022/09/05 17:56:21;;;;;;;6.30;3.03;;;;;;;;;;6352943;28;20316;-70
2022/09/05 17:59:25;;;;;;;5.68;2.67;;;;;;;;;;6231497;28;20042;-69
2022/09/05 18:02:32;;;;;;;5.20;2.90;;;;;;;;;;6228010;28;20117;-69
2022/09/05 18:05:59;;;;;;;5.30;2.75;;;;;;;;;;6231744;28;20180;-69
2022/09/05 18:09:05;;;;;;;3.83;2.97;;;;;;;;;;6226356;28;20045;-68
2022/09/05 18:12:10;;;;;;;3.28;2.90;;;;;;;;;;6233633;28;20050;-66
2022/09/05 18:15:15;;;;;;;4.10;2.55;;;;;;;;;;6230013;28;20396;-66
2022/09/05 18:18:33;;;;;;;5.78;2.80;;;;;;;;;;6236278;28;20089;-67
2022/09/05 18:21:46;;;;;;;5.63;2.83;;;;;;;;;;6232452;28;20053;-70
2022/09/05 18:24:51;;;;;;;3.85;2.92;;;;;;;;;;6231765;28;20100;-70
2022/09/05 18:27:55;;;;;;;6.75;2.97;;;;;;;;;;6234978;28;20068;-69
2022/09/05 18:30:56;;;;;;;4.78;2.92;;;;;;;;;;6319101;28;20067;-70
2022/09/05 18:34:40;;;;;;;4.43;2.85;;;;;;;;;;6329618;28;20212;-70
2022/09/05 18:37:51;;;;;;;;;;;;;;;;;;6334341;28;20238;-69
2022/09/05 18:41:00;;;;;;;6.75;3.47;;;;;;;;;;6337665;28;19928;-69
2022/09/05 18:44:06;;;;;;;9.63;3.95;;;;;;;;;;6336073;28;20047;-69
2022/09/05 18:47:11;;;;;;;13.02;4.10;;;;;;;;;;6332212;28;20054;-69
2022/09/05 18:50:18;;;;;;;10.27;4.30;;;;;;;;;;6336320;28;20052;-67
2022/09/05 18:53:25;;;;;;;4.78;3.30;;;;;;;;;;6335959;28;20397;-69
2022/09/05 18:56:31;;;;;;;4.97;3.50;;;;;;;;;;6330696;28;20067;-68
2022/09/05 18:59:34;;;;;;;10.95;3.90;;;;;;;;;;6349243;27;20085;-69